Flight Track Log - Related Links

Times and Time Zones

All times are in EDT time to prevent confusion due to time zone crossing. See the SWA3561 flight status page for this flight to view local times or setup timezone preferences in your user account.

Time Position Orientation Groundspeed Altitude Reporting Facility
EDT Latitude Longitude Course Direction KTS MPH feet Rate Location/Type
Sat 07:54:39 AM 35.1572 -101.5822 112° Southeast 255 293 8,100  Level Albuquerque Center
Sat 07:55:39 AM 35.1508 -101.4967 95° East 253 291 10,700 2,750 Climbing Albuquerque Center
Sat 07:56:39 AM 35.1128 -101.3914 114° Southeast 331 381 13,600 3,050 Climbing Albuquerque Center
Sat 07:57:39 AM 35.0689 -101.2822 116° Southeast 354 407 16,800 2,950 Climbing Albuquerque Center
Sat 07:58:39 AM 35.0233 -101.1667 116° Southeast 371 427 19,500 2,628 Climbing Albuquerque Center
Sat 07:59:00 AM 35.0809 -101.0095 112° Southeast  Level FlightAware Approximate
Sat 07:59:40 AM 34.9742 -101.0458 116° Southeast 390 449 22,100  Level Albuquerque Center
Sat 08:00:40 AM 34.9233 -100.9181 116° Southeast 411 473 24,500 2,380 Climbing Albuquerque Center
Sat 08:01:41 AM 34.8692 -100.7878 117° Southeast 427 491 26,900 2,132 Climbing Albuquerque Center
Sat 08:02:41 AM 34.8103 -100.6558 118° Southeast 439 505 28,800 1,850 Climbing Albuquerque Center
Sat 08:03:41 AM 34.7506 -100.5175 118° Southeast 456 525 30,600 1,650 Climbing Albuquerque Center
Sat 08:04:41 AM 34.6897 -100.3761 118° Southeast 467 537 32,100 1,500 Climbing Albuquerque Center
Sat 08:05:41 AM 34.6269 -100.2303 118° Southeast 482 555 33,600 1,642 Climbing Albuquerque Center
Sat 08:06:27 AM 34.5761 -100.1147 118° Southeast 484 557 35,000 792 Climbing Fort Worth Center
Sat 08:07:27 AM 34.5125 -99.9664 117° Southeast 489 563 35,000  Level Fort Worth Center
Sat 08:08:27 AM 34.4464 -99.8183 118° Southeast 494 568 35,000  Level Fort Worth Center
Sat 08:09:27 AM 34.3864 -99.6833 118° Southeast 500 575 35,000  Level Fort Worth Center
Sat 08:10:27 AM 34.3181 -99.5358 119° Southeast 500 575 35,000  Level Fort Worth Center
Sat 08:11:27 AM 34.2558 -99.3911 117° Southeast 500 575 35,000  Level Fort Worth Center
Sat 08:12:27 AM 34.1869 -99.2414 119° Southeast 500 575 35,000  Level Fort Worth Center
Sat 08:13:27 AM 34.1222 -99.0969 118° Southeast 503 579 35,000  Level Fort Worth Center
Sat 08:14:27 AM 34.0514 -98.9400 119° Southeast 509 586 35,000  Level Fort Worth Center
Sat 08:15:27 AM 33.9781 -98.7811 119° Southeast 498 573 35,000 -1,050 Level Fort Worth Center
Sat 08:16:27 AM 33.9067 -98.6297 120° Southeast 498 573 32,900 -1,550 Descending Fort Worth Center
Sat 08:17:27 AM 33.8453 -98.4939 119° Southeast 508 585 31,900 -2,050 Descending Fort Worth Center
Sat 08:18:27 AM 33.7733 -98.3381 119° Southeast 513 590 28,800 -3,800 Descending Fort Worth Center
Sat 08:19:27 AM 33.6869 -98.1772 123° Southeast 525 604 24,300 -3,750 Descending Fort Worth Center
Sat 08:20:27 AM 33.6083 -98.0369 124° Southeast 520 598 21,300 -2,650 Descending Fort Worth Center
Sat 08:21:27 AM 33.5294 -97.9019 125° Southeast 504 580 19,000 -1,500 Descending Fort Worth Center
Sat 08:22:27 AM 33.4694 -97.7969 124° Southeast 453 521 18,300 -2,250 Descending Fort Worth Center
Sat 08:23:27 AM 33.3967 -97.6672 124° Southeast 438 504 14,500 -3,600 Descending Fort Worth Center
Sat 08:24:27 AM 33.3175 -97.5625 132° Southeast 426 490 11,100 -1,750 Descending Fort Worth Center
Sat 08:25:27 AM 33.2486 -97.4856 137° Southeast 395 455 11,000 -50 Descending Fort Worth Center
Sat 08:26:27 AM 33.1717 -97.3961 136° Southeast 362 417 11,000  Level Fort Worth Center
Sat 08:27:27 AM 33.1089 -97.3217 135° Southeast 356 410 11,000  Level Fort Worth Center
Sat 08:28:27 AM 33.0336 -97.2350 136° Southeast 346 398 11,000 -50 Level Fort Worth Center
Sat 08:29:27 AM 32.9731 -97.1683 137° Southeast 340 391 10,900 -371 Descending Fort Worth Center
Sat 08:30:04 AM 32.9333 -97.1167 132° Southeast 291 335 10,400 -1,165 Descending Dallas / Fort Worth TRACON
Sat 08:31:10 AM 32.8667 -97.0500 140° Southeast 268 308 8,900 -1,450 Descending Dallas / Fort Worth TRACON
Sat 08:32:04 AM 32.8333 -96.9833 121° Southeast 255 293 7,500 -1,579 Descending Dallas / Fort Worth TRACON
Sat 08:33:04 AM 32.8000 -96.9167 121° Southeast 249 287 5,900 -1,450 Descending Dallas / Fort Worth TRACON
Sat 08:34:04 AM 32.7500 -96.8500 132° Southeast 247 284 4,600 -1,150 Descending Dallas / Fort Worth TRACON
Sat 08:35:04 AM 32.7167 -96.7833 121° Southeast 234 269 3,600 -1,000 Descending Dallas / Fort Worth TRACON
Sat 08:36:04 AM 32.7667 -96.7500 29° Northeast 187 215 2,600 -900 Descending Dallas / Fort Worth TRACON
Sat 08:37:04 AM 32.8000 -96.7833 320° Northwest 131 151 1,800 -750 Descending Dallas / Fort Worth TRACON
Sat 08:38:04 AM 32.8167 -96.8167 301° West 128 147 1,100 -700 Descending Dallas / Fort Worth TRACON

Login

Don't have an account? Register now (free) for customized features, flight alerts, and more!